Skip Navigation

Christman Field Latest Observations

Switch to english unitsOther observation timesWeekly graphs

Date Time
MST
Temp
°C
RH
%
DewPt
°C
Wind
m/s
Dir
°
Gust
m/s
Dir
°
Press
hPa
Solar
W/m^2
Prec
mm
2017-08-18 10:00 23.8 33.1 6.6 2.2 139 4.3 139 843.73 468.7 0.00
2017-08-18 09:55 23.7 32.6 6.3 2.1 188 3.4 119 843.69 530.4 0.00
2017-08-18 09:50 23.5 33.3 6.5 1.8 158 2.6 139 843.66 575.6 0.00
2017-08-18 09:45 23.3 34.3 6.6 1.9 148 2.7 111 843.67 554.2 0.00
2017-08-18 09:40 23.2 34.3 6.6 2.1 100 3.1 96 843.64 337.2 0.00
2017-08-18 09:35 23.0 35.6 7.0 1.9 104 2.6 96 843.67 508.5 0.00
2017-08-18 09:30 23.0 37.0 7.6 2.0 94 2.8 84 843.69 598.4 0.00
2017-08-18 09:25 22.7 33.9 6.0 2.1 84 3.0 72 843.68 569.6 0.00
2017-08-18 09:20 22.8 34.5 6.3 1.9 68 3.0 97 843.77 531.9 0.00
2017-08-18 09:15 22.6 37.4 7.4 2.0 112 2.6 92 843.77 618.6 0.00
2017-08-18 09:10 22.8 37.4 7.5 0.8 85 1.9 107 843.74 622.4 0.00
2017-08-18 09:05 22.4 37.0 7.0 1.3 112 2.2 108 843.73 609.4 0.00
2017-08-18 09:00 22.4 35.1 6.2 1.3 147 2.2 85 843.73 597.8 0.00
2017-08-18 08:55 22.2 40.5 8.1 1.2 98 2.2 94 843.75 584.8 0.00
2017-08-18 08:50 21.9 37.5 6.8 1.2 133 2.2 142 843.75 571.8 0.00
2017-08-18 08:45 22.1 38.0 7.2 1.8 130 2.4 125 843.76 558.3 0.00
2017-08-18 08:40 22.2 37.5 7.0 1.1 114 2.4 92 843.76 545.5 0.00
2017-08-18 08:35 22.0 39.1 7.5 1.0 107 1.6 113 843.75 532.1 0.00
2017-08-18 08:30 21.7 36.4 6.2 1.2 132 2.2 121 843.76 519.4 0.00
2017-08-18 08:25 21.5 41.0 7.7 0.8 116 1.3 84 843.72 505.0 0.00
2017-08-18 08:20 21.3 39.2 6.8 0.7 163 1.3 151 843.67 491.0 0.00
2017-08-18 08:15 21.2 42.6 8.0 0.7 152 1.7 152 843.69 476.8 0.00
2017-08-18 08:10 20.9 43.7 8.1 0.7 143 1.4 143 843.73 462.8 0.00
2017-08-18 08:05 20.6 46.8 8.8 0.7 135 1.7 140 843.70 443.9 0.00
2017-08-18 08:00 20.3 49.0 9.3 0.5 126 1.1 113 843.70 432.6 0.00
2017-08-18 07:55 20.0 49.5 9.1 0.8 126 1.4 116 843.70 417.5 0.00
2017-08-18 07:50 19.7 48.2 8.5 0.7 139 1.4 133 843.71 402.9 0.00
2017-08-18 07:45 19.4 45.0 7.2 0.7 78 1.2 67 843.67 387.6 0.00
2017-08-18 07:40 19.0 49.4 8.2 1.0 44 1.7 36 843.71 372.7 0.00
2017-08-18 07:35 19.1 51.6 8.9 1.0 43 1.3 42 843.75 357.4 0.00